Winnetka, California
Current Conditions -  °F | °C
As of 12:51 AM on Sunday 23 Nov 2014 (Local Time) from KVNY Reporting Station
Clear Clear  
Wind Chill: 64°   Ceiling: Unl
Heat Index: 64°   Visibility: 10mi
Dew Point: 43°   Wind: 24mph
Humidity: 46%   Direction: 350°N
Pressure: 30.03"   Gusts: 33mph
Location:  34.21°N, 118.57°W
Report Text: KVNY 230851Z 35021G29KT 10SM CLR 18/06 A3003 RMK AO2 PK WND 01031/0828 SLP163 T01780061 58003
Loading
Personal Weather Stations






























Interactive Weather Map New forecast layout! Learn more

10-Day Weather Forecast

Advertisements
Track Severe Weather on mobile